Time;durP1;ratioP1;P1;durP2;ratioP2;P2;SDS_P1;SDS_P2;PMS_P1;PMS_P2;Temp;Humidity;BMP_temperature;BMP_pressure;BME280_temperature;BME280_humidity;BME280_pressure;Samples;Min_cycle;Max_cycle;Signal;HPM_P1;HPM_P2
2022/01/26 00:00:41;;;;;;;0.57;0.57;;;;;;;5.60;67.99;100911.53;5005343;28;20100;-75
2022/01/26 00:06:00;;;;;;;0.10;0.10;;;;;;;5.58;67.94;100912.47;5008199;28;20077;-75
2022/01/26 00:08:27;;;;;;;0.10;0.10;;;;;;;5.56;68.15;100912.53;4990557;28;20124;-74
2022/01/26 00:10:54;;;;;;;0.57;0.57;;;;;;;5.53;68.29;100910.06;5008007;28;20100;-72
2022/01/26 00:13:21;;;;;;;0.20;0.20;;;;;;;5.50;68.20;100907.56;5013151;28;20045;-70
2022/01/26 00:15:48;;;;;;;0.08;0.08;;;;;;;5.53;68.20;100916.16;5018016;28;20133;-71
2022/01/26 00:18:20;;;;;;;1.70;1.55;;;;;;;5.55;67.90;100909.06;5014631;28;20109;-77
2022/01/26 00:20:54;;;;;;;1.60;1.60;;;;;;;5.51;68.18;100910.13;5011854;28;20050;-70
2022/01/26 00:26:15;;;;;;;0.22;0.22;;;;;;;5.49;68.19;100911.97;4970765;28;20076;-75
2022/01/26 00:28:58;;;;;;;0.90;0.90;;;;;;;5.47;68.19;100913.78;4969519;28;20046;-81
2022/01/26 00:39:40;;;;;;;0.13;0.13;;;;;;;5.43;68.27;100911.34;4979148;28;20053;-74
2022/01/26 00:42:08;;;;;;;0.30;0.30;;;;;;;5.41;68.38;100910.56;4977881;28;20083;-71
2022/01/26 00:44:41;;;;;;;0.55;0.55;;;;;;;5.42;68.13;100910.50;4979649;28;20349;-76
2022/01/26 00:47:08;;;;;;;0.22;0.22;;;;;;;5.44;68.23;100919.16;4979274;28;20055;-72
2022/01/26 00:49:37;;;;;;;0.20;0.20;;;;;;;5.50;68.24;100913.66;4978038;28;20119;-76
2022/01/26 00:52:07;;;;;;;0.30;0.30;;;;;;;5.53;68.00;100910.06;4976724;28;20083;-72
2022/01/26 00:54:34;;;;;;;0.10;0.10;;;;;;;5.55;68.07;100910.84;4972289;28;20058;-74
2022/01/26 00:57:01;;;;;;;0.10;0.10;;;;;;;5.51;67.91;100907.50;4977361;28;20129;-71
2022/01/26 00:59:28;;;;;;;0.25;0.25;;;;;;;5.45;67.90;100905.13;4972340;28;20057;-72
2022/01/26 01:01:58;;;;;;;0.20;0.20;;;;;;;5.43;68.03;100899.09;4974361;28;20042;-71
2022/01/26 01:04:25;;;;;;;0.10;0.10;;;;;;;5.42;68.02;100902.66;5013729;28;20096;-72
2022/01/26 01:06:58;;;;;;;0.20;0.20;;;;;;;5.43;67.96;100896.47;5011333;28;20046;-71
2022/01/26 01:09:25;;;;;;;0.10;0.10;;;;;;;5.44;67.79;100894.69;5010683;28;20668;-70
2022/01/26 01:11:56;;;;;;;0.10;0.10;;;;;;;5.43;67.86;100888.63;5010795;28;20046;-71
2022/01/26 01:14:24;;;;;;;0.75;0.65;;;;;;;5.42;67.89;100893.91;5009787;28;20477;-73
2022/01/26 01:16:55;;;;;;;0.10;0.10;;;;;;;5.38;67.85;100887.94;5009157;28;20128;-71
2022/01/26 01:19:35;;;;;;;0.00;0.00;;;;;;;5.35;68.00;100882.84;5010966;28;20073;-71
2022/01/26 01:30:30;;;;;;;0.45;0.45;;;;;;;5.36;67.82;100877.53;4891146;29;20465;-73
2022/01/26 01:33:06;;;;;;;0.30;0.30;;;;;;;5.30;67.85;100874.31;4889972;29;20064;-75
2022/01/26 01:35:36;;;;;;;0.13;0.13;;;;;;;5.27;68.03;100879.69;4891483;29;20045;-73
2022/01/26 01:38:10;;;;;;;0.40;0.40;;;;;;;5.30;68.02;100880.41;4891445;29;20068;-74
2022/01/26 01:40:39;;;;;;;2.13;1.45;;;;;;;5.29;67.96;100885.69;4889657;29;20614;-76
2022/01/26 01:43:07;;;;;;;0.32;0.32;;;;;;;5.30;68.03;100874.31;4890637;29;20059;-72
2022/01/26 01:45:36;;;;;;;1.15;1.08;;;;;;;5.28;67.93;100877.00;4890745;29;20144;-73
2022/01/26 01:48:04;;;;;;;0.00;0.00;;;;;;;5.27;67.95;100874.44;4890681;29;20187;-72
2022/01/26 01:50:36;;;;;;;0.43;0.43;;;;;;;5.27;67.99;100879.69;4891276;29;20565;-76
2022/01/26 01:53:04;;;;;;;0.35;0.35;;;;;;;5.29;67.85;100876.06;4890228;29;20064;-73
2022/01/26 01:55:32;;;;;;;0.10;0.10;;;;;;;5.25;67.90;100877.13;4892870;29;20124;-76
2022/01/26 01:58:00;;;;;;;0.10;0.10;;;;;;;5.22;67.98;100876.38;4891969;29;20671;-69
2022/01/26 02:00:29;;;;;;;1.02;1.00;;;;;;;5.20;68.03;100878.22;4890778;29;20525;-75
2022/01/26 02:03:00;;;;;;;0.10;0.10;;;;;;;5.21;68.01;100882.56;4875567;29;20052;-72
2022/01/26 02:05:28;;;;;;;1.00;0.93;;;;;;;5.20;67.98;100872.97;4932596;28;20057;-70
2022/01/26 02:07:56;;;;;;;0.20;0.20;;;;;;;5.16;67.96;100877.50;4992520;28;20054;-77
2022/01/26 02:10:25;;;;;;;0.10;0.10;;;;;;;5.14;67.99;100869.69;4987687;28;20605;-73
2022/01/26 02:12:57;;;;;;;0.10;0.10;;;;;;;5.12;68.07;100868.91;5007018;28;20057;-70
2022/01/26 02:15:35;;;;;;;0.10;0.10;;;;;;;5.11;67.84;100875.06;5009181;28;20058;-72
2022/01/26 02:18:20;;;;;;;1.55;1.55;;;;;;;5.13;67.90;100875.00;4992937;28;20077;-74
2022/01/26 02:21:08;;;;;;;0.10;0.10;;;;;;;5.12;67.69;100866.28;4994072;28;20041;-74
2022/01/26 02:52:03;;;;;;;0.10;0.10;;;;;;;4.95;67.97;100869.59;4852472;29;20153;-76
2022/01/26 02:57:27;;;;;;;0.10;0.10;;;;;;;5.00;67.83;100864.16;4856106;29;20064;-73
2022/01/26 03:00:15;;;;;;;0.10;0.10;;;;;;;5.02;67.85;100858.88;4871025;29;20044;-71
2022/01/26 03:02:48;;;;;;;0.47;0.47;;;;;;;5.03;67.76;100850.09;4884070;29;20049;-71
2022/01/26 03:05:19;;;;;;;0.10;0.10;;;;;;;5.03;67.86;100848.34;4884448;29;20069;-73
2022/01/26 03:07:52;;;;;;;0.32;0.30;;;;;;;5.01;67.94;100846.69;4891724;29;20053;-70
2022/01/26 03:10:26;;;;;;;0.10;0.10;;;;;;;5.02;67.94;100845.78;4939563;29;20095;-70
2022/01/26 03:12:58;;;;;;;0.10;0.10;;;;;;;5.01;67.68;100839.69;4934986;29;20176;-71
2022/01/26 03:15:30;;;;;;;0.85;0.82;;;;;;;5.01;67.96;100841.47;4913651;29;20066;-75
2022/01/26 03:20:39;;;;;;;1.08;1.08;;;;;;;5.00;68.04;100845.81;4927403;29;20048;-76
2022/01/26 03:28:44;;;;;;;0.28;0.28;;;;;;;5.06;67.92;100842.09;5008471;28;20049;-71
2022/01/26 03:34:09;;;;;;;0.13;0.13;;;;;;;5.01;68.03;100842.31;5004561;28;20046;-74
2022/01/26 03:36:46;;;;;;;0.43;0.43;;;;;;;5.01;68.01;100841.47;5004161;28;20069;-72
2022/01/26 03:39:15;;;;;;;1.00;1.00;;;;;;;5.03;68.00;100848.34;5003554;28;20560;-71
2022/01/26 03:41:47;;;;;;;0.20;0.20;;;;;;;5.05;67.94;100845.66;5003059;28;20057;-70
2022/01/26 03:44:14;;;;;;;0.10;0.10;;;;;;;5.04;67.89;100850.06;5002692;28;20549;-71
2022/01/26 03:46:43;;;;;;;0.10;0.10;;;;;;;5.04;67.92;100852.66;5002352;28;20050;-71
2022/01/26 03:49:11;;;;;;;0.10;0.10;;;;;;;5.08;67.96;100856.00;5002303;28;20046;-72
2022/01/26 03:51:40;;;;;;;1.90;1.88;;;;;;;5.11;67.81;100859.38;5006113;28;20048;-72
2022/01/26 03:54:08;;;;;;;0.10;0.10;;;;;;;5.15;67.72;100855.69;5007040;28;20465;-71
2022/01/26 03:56:36;;;;;;;0.20;0.20;;;;;;;5.13;67.67;100857.53;5006763;28;20562;-72
2022/01/26 03:59:05;;;;;;;0.10;0.10;;;;;;;5.10;67.79;100855.03;5006979;28;20057;-71
2022/01/26 04:01:32;;;;;;;0.10;0.10;;;;;;;5.08;67.72;100859.47;5004376;28;20088;-71
2022/01/26 04:04:00;;;;;;;1.35;1.35;;;;;;;5.09;67.87;100858.53;5007108;28;20054;-72
2022/01/26 04:06:29;;;;;;;0.45;0.45;;;;;;;5.11;67.81;100863.72;5013155;28;20080;-75
2022/01/26 04:08:56;;;;;;;0.10;0.10;;;;;;;5.09;67.67;100868.19;5023426;28;20096;-77
2022/01/26 04:14:08;;;;;;;0.55;0.55;;;;;;;5.07;67.67;100864.78;5009419;28;20061;-72
2022/01/26 04:16:37;;;;;;;1.15;1.10;;;;;;;5.03;67.89;100853.56;5014428;28;20050;-71
2022/01/26 04:19:05;;;;;;;0.28;0.28;;;;;;;5.03;68.00;100861.41;5013721;28;20140;-69
2022/01/26 04:21:44;;;;;;;0.63;0.63;;;;;;;5.02;67.91;100864.09;5011278;28;20060;-70
2022/01/26 04:24:17;;;;;;;0.73;0.73;;;;;;;5.04;67.81;100863.13;4996067;28;20068;-70
2022/01/26 04:26:49;;;;;;;0.20;0.20;;;;;;;5.01;68.03;100852.78;5011196;28;20270;-72
2022/01/26 04:29:22;;;;;;;0.10;0.10;;;;;;;5.02;67.80;100854.47;5010653;28;20088;-70
2022/01/26 04:31:49;;;;;;;0.40;0.40;;;;;;;5.03;67.88;100847.50;5019577;28;20519;-70
2022/01/26 04:34:16;;;;;;;5.07;2.30;;;;;;;5.00;67.92;100850.22;5021467;28;20109;-72
2022/01/26 04:36:49;;;;;;;0.73;0.73;;;;;;;5.01;67.87;100855.41;5017907;28;20455;-71
2022/01/26 04:39:21;;;;;;;0.95;0.95;;;;;;;5.00;67.94;100851.06;5011636;28;20141;-79
2022/01/26 04:41:52;;;;;;;0.10;0.10;;;;;;;5.01;67.82;100847.53;5013991;28;20088;-78
2022/01/26 04:44:23;;;;;;;0.10;0.10;;;;;;;5.03;67.81;100850.09;5013090;28;20072;-72
2022/01/26 04:46:51;;;;;;;0.35;0.35;;;;;;;4.99;67.75;100846.75;5015409;28;20053;-79
2022/01/26 04:49:18;;;;;;;0.10;0.10;;;;;;;4.97;67.96;100853.81;5014264;28;20046;-71
2022/01/26 04:51:46;;;;;;;1.85;1.75;;;;;;;4.96;67.91;100850.34;5017542;28;20110;-74
2022/01/26 04:54:13;;;;;;;0.10;0.10;;;;;;;4.97;67.98;100852.06;5019212;28;20049;-76
2022/01/26 04:56:40;;;;;;;0.35;0.35;;;;;;;5.00;67.91;100844.97;5017788;28;20133;-71
2022/01/26 04:59:07;;;;;;;3.60;2.10;;;;;;;5.06;67.71;100845.59;5017106;28;20097;-75
2022/01/26 05:01:36;;;;;;;0.10;0.10;;;;;;;5.12;67.84;100842.72;5008893;28;20546;-76
2022/01/26 05:04:03;;;;;;;1.13;1.13;;;;;;;5.11;67.65;100843.66;5010703;28;20073;-73
2022/01/26 05:06:30;;;;;;;0.55;0.55;;;;;;;5.07;67.78;100836.81;5021755;28;20045;-75
2022/01/26 05:08:57;;;;;;;1.02;1.00;;;;;;;5.04;67.83;100839.56;5052066;28;20149;-78
2022/01/26 05:11:32;;;;;;;0.10;0.10;;;;;;;5.04;67.87;100842.19;5039744;28;20050;-72
2022/01/26 05:13:59;;;;;;;3.85;1.45;;;;;;;5.04;67.84;100836.09;5013255;28;20414;-75
2022/01/26 05:16:27;;;;;;;0.35;0.35;;;;;;;5.01;68.14;100834.47;5011621;28;20061;-78
2022/01/26 05:18:57;;;;;;;0.10;0.10;;;;;;;5.03;68.02;100823.94;5009940;28;20104;-75
2022/01/26 05:21:25;;;;;;;0.75;0.75;;;;;;;5.02;68.02;100833.53;5008863;28;20089;-71
2022/01/26 05:23:53;;;;;;;0.65;0.65;;;;;;;5.00;67.94;100829.28;5009831;28;20130;-75
2022/01/26 05:26:20;;;;;;;1.55;1.55;;;;;;;5.01;67.97;100826.59;5012096;28;20149;-78
2022/01/26 05:28:47;;;;;;;1.80;1.77;;;;;;;5.00;67.85;100819.66;4994004;28;20461;-74
2022/01/26 05:33:58;;;;;;;1.30;1.00;;;;;;;5.01;67.93;100820.53;5016303;28;20109;-77
2022/01/26 05:36:25;;;;;;;0.75;0.75;;;;;;;4.98;67.96;100826.72;5017121;28;20625;-72
2022/01/26 05:38:52;;;;;;;0.40;0.40;;;;;;;4.97;68.07;100820.63;5013800;28;20042;-70
2022/01/26 05:41:19;;;;;;;0.32;0.32;;;;;;;4.94;67.95;100814.66;5010913;28;20143;-74
2022/01/26 05:43:46;;;;;;;0.50;0.50;;;;;;;4.95;67.94;100813.75;5010079;28;20132;-76
2022/01/26 05:46:18;;;;;;;0.20;0.20;;;;;;;4.95;68.01;100813.75;5010209;28;20148;-82
2022/01/26 05:48:49;;;;;;;1.67;1.58;;;;;;;4.97;68.01;100822.41;5007245;28;20057;-76
2022/01/26 05:51:18;;;;;;;0.52;0.52;;;;;;;4.98;67.81;100819.69;5009539;28;20061;-75
2022/01/26 05:53:45;;;;;;;0.65;0.65;;;;;;;5.01;67.92;100808.28;5009114;28;20129;-72
2022/01/26 05:56:12;;;;;;;0.45;0.45;;;;;;;5.03;67.90;100824.78;5008355;28;20056;-75
2022/01/26 05:58:39;;;;;;;6.82;1.50;;;;;;;5.08;67.92;100819.38;5009493;28;20112;-77
2022/01/26 06:01:07;;;;;;;0.70;0.70;;;;;;;5.09;67.87;100818.44;5004864;28;20121;-71
2022/01/26 06:03:35;;;;;;;0.45;0.45;;;;;;;5.13;67.68;100820.00;4990035;28;20137;-71
2022/01/26 06:06:02;;;;;;;0.45;0.45;;;;;;;5.10;67.55;100823.59;4993822;28;20128;-72
2022/01/26 06:08:31;;;;;;;5.18;2.13;;;;;;;5.09;67.65;100818.44;5011447;28;20045;-73
2022/01/26 06:11:01;;;;;;;0.28;0.28;;;;;;;5.08;67.85;100816.75;5012224;28;20109;-69
2022/01/26 06:13:29;;;;;;;0.60;0.60;;;;;;;5.04;67.67;100821.25;5015915;28;20062;-74
2022/01/26 06:15:56;;;;;;;0.10;0.10;;;;;;;5.02;67.75;100815.19;5011436;28;20050;-75
2022/01/26 06:18:23;;;;;;;0.77;0.75;;;;;;;5.03;67.63;100811.69;5011305;28;20046;-76
2022/01/26 06:20:50;;;;;;;0.10;0.10;;;;;;;5.03;67.65;100814.28;5010642;28;20050;-79
2022/01/26 06:23:19;;;;;;;0.85;0.85;;;;;;;5.08;67.97;100814.97;5015474;28;20138;-75
2022/01/26 06:25:49;;;;;;;0.22;0.22;;;;;;;5.11;67.61;100801.75;5007636;28;20054;-78
2022/01/26 06:28:17;;;;;;;1.85;1.75;;;;;;;5.15;67.60;100808.56;5010437;28;20649;-76
2022/01/26 06:30:47;;;;;;;0.20;0.20;;;;;;;5.14;67.74;100806.00;5011063;28;20057;-78
2022/01/26 06:33:15;;;;;;;0.10;0.10;;;;;;;5.15;67.55;100803.31;5008479;28;20092;-77
2022/01/26 06:35:43;;;;;;;0.10;0.10;;;;;;;5.15;67.58;100805.94;5006887;28;20054;-77
2022/01/26 06:38:13;;;;;;;0.47;0.47;;;;;;;5.13;67.57;100796.44;5007316;28;20141;-78
2022/01/26 06:40:41;;;;;;;0.20;0.20;;;;;;;5.11;67.54;100796.53;4970757;28;20049;-75
2022/01/26 06:43:13;;;;;;;1.17;1.10;;;;;;;5.08;67.72;100798.41;5006017;28;20614;-78
2022/01/26 06:45:47;;;;;;;1.27;1.27;;;;;;;5.07;67.80;100794.91;5005555;28;20489;-77
2022/01/26 06:48:40;;;;;;;2.10;1.75;;;;;;;5.11;67.67;100799.13;5026750;28;20053;-75
2022/01/26 06:51:07;;;;;;;1.42;1.35;;;;;;;5.12;67.49;100799.97;5040942;28;20045;-77
2022/01/26 06:53:36;;;;;;;3.92;2.75;;;;;;;5.07;67.76;100800.16;5029826;28;20080;-75
2022/01/26 06:56:04;;;;;;;0.73;0.73;;;;;;;5.08;67.86;100798.41;5023954;28;20057;-75
2022/01/26 06:58:33;;;;;;;0.43;0.43;;;;;;;5.08;67.79;100804.50;5022086;28;20045;-74
2022/01/26 07:01:00;;;;;;;0.10;0.10;;;;;;;5.05;67.87;100795.91;5021719;28;20136;-78
2022/01/26 07:03:27;;;;;;;1.70;1.63;;;;;;;5.03;67.93;100801.22;5022273;28;20054;-73
2022/01/26 07:05:55;;;;;;;0.75;0.75;;;;;;;5.03;67.97;100803.81;5022859;28;20100;-74
2022/01/26 07:08:21;;;;;;;0.30;0.30;;;;;;;5.03;68.00;100809.06;5022379;28;20049;-75
2022/01/26 07:10:51;;;;;;;7.88;3.17;;;;;;;5.08;67.96;100806.28;5022354;28;20085;-74
2022/01/26 07:13:18;;;;;;;3.05;2.85;;;;;;;5.13;67.92;100801.66;5023064;28;20057;-74
2022/01/26 07:21:37;;;;;;;1.58;1.48;;;;;;;5.10;67.81;100788.72;5044593;28;20113;-77
2022/01/26 07:24:05;;;;;;;0.20;0.20;;;;;;;5.13;67.84;100794.69;5042114;28;20128;-75
2022/01/26 07:26:32;;;;;;;0.10;0.10;;;;;;;5.16;67.85;100794.53;5041482;28;20060;-74
2022/01/26 07:29:05;;;;;;;0.20;0.20;;;;;;;5.15;67.75;100792.00;5041773;28;20691;-73
2022/01/26 07:31:36;;;;;;;0.63;0.63;;;;;;;5.16;67.68;100793.69;5041862;28;20057;-76
2022/01/26 07:34:05;;;;;;;0.32;0.32;;;;;;;5.20;67.71;100795.25;5041783;28;20059;-74
2022/01/26 07:36:33;;;;;;;3.10;2.75;;;;;;;5.23;67.68;100796.91;5023418;28;20619;-76
2022/01/26 07:39:07;;;;;;;1.10;1.10;;;;;;;5.21;67.68;100796.13;5041415;28;20076;-74
2022/01/26 07:41:36;;;;;;;1.10;1.10;;;;;;;5.25;67.71;100795.09;5043058;28;20660;-75
2022/01/26 07:44:04;;;;;;;0.10;0.10;;;;;;;5.33;67.63;100806.06;5042900;28;20141;-76
2022/01/26 07:46:34;;;;;;;0.32;0.32;;;;;;;5.41;67.50;100813.63;5044066;28;20120;-79
2022/01/26 07:49:02;;;;;;;0.10;0.10;;;;;;;5.44;67.54;100814.38;5043369;28;20268;-75
2022/01/26 07:51:30;;;;;;;2.60;2.38;;;;;;;5.43;67.52;100815.25;5042429;28;20041;-76
2022/01/26 07:53:58;;;;;;;1.60;1.38;;;;;;;5.41;67.24;100816.25;5042073;28;20069;-77
2022/01/26 07:56:26;;;;;;;0.10;0.10;;;;;;;5.41;67.54;100809.25;5043297;28;20049;-76
2022/01/26 07:58:53;;;;;;;1.92;1.83;;;;;;;5.44;67.52;100813.50;5043420;28;20052;-76
2022/01/26 08:01:21;;;;;;;0.75;0.75;;;;;;;5.48;67.37;100808.06;5043274;28;20076;-79
2022/01/26 08:03:50;;;;;;;0.45;0.45;;;;;;;5.56;67.25;100807.72;5024811;28;20548;-75
2022/01/26 08:06:18;;;;;;;2.45;2.30;;;;;;;5.53;67.28;100816.59;5042544;28;21225;-79
2022/01/26 08:08:45;;;;;;;0.75;0.75;;;;;;;5.52;67.42;100804.38;5025019;28;20072;-76
2022/01/26 08:11:13;;;;;;;0.10;0.10;;;;;;;5.59;67.50;100801.53;5043940;28;20081;-75
2022/01/26 08:13:40;;;;;;;0.95;0.95;;;;;;;5.65;67.12;100801.25;5043093;28;20083;-77
2022/01/26 08:16:07;;;;;;;0.13;0.13;;;;;;;5.65;67.32;100788.16;5043996;28;20111;-76
2022/01/26 08:18:35;;;;;;;0.10;0.10;;;;;;;5.58;67.38;100791.94;5043792;28;20123;-76
2022/01/26 08:21:06;;;;;;;0.30;0.30;;;;;;;5.60;67.40;100779.63;5043744;28;20105;-76
2022/01/26 08:23:35;;;;;;;0.10;0.10;;;;;;;5.65;67.43;100775.03;5049865;28;20052;-76
2022/01/26 08:26:03;;;;;;;4.68;3.72;;;;;;;5.81;67.17;100781.31;5044923;28;20141;-79
2022/01/26 08:28:36;;;;;;;0.10;0.10;;;;;;;6.00;67.15;100783.16;5045882;28;20045;-78
2022/01/26 08:31:03;;;;;;;0.10;0.10;;;;;;;6.08;66.66;100778.41;5044835;28;20045;-78
2022/01/26 08:33:30;;;;;;;0.30;0.30;;;;;;;6.10;66.64;100777.44;5044203;28;20075;-78
2022/01/26 08:35:58;;;;;;;0.35;0.35;;;;;;;6.21;66.63;100779.56;5045034;28;20052;-79
2022/01/26 08:38:27;;;;;;;17.52;4.13;;;;;;;6.30;66.45;100776.53;5028217;28;20155;-74
2022/01/26 08:40:54;;;;;;;0.10;0.10;;;;;;;6.29;66.23;100784.47;5046865;28;20045;-74
2022/01/26 08:43:21;;;;;;;0.63;0.63;;;;;;;6.24;65.97;100792.53;5047533;28;20525;-78
2022/01/26 08:45:49;;;;;;;0.20;0.20;;;;;;;6.23;66.16;100782.97;5049362;28;20159;-76
2022/01/26 08:48:16;;;;;;;0.10;0.10;;;;;;;6.30;66.10;100787.00;5049184;28;20049;-77
2022/01/26 08:50:44;;;;;;;0.47;0.47;;;;;;;6.30;65.91;100787.00;5048683;28;20136;-78
2022/01/26 08:53:12;;;;;;;0.15;0.15;;;;;;;6.24;65.79;100787.28;5047722;28;20183;-74
2022/01/26 08:55:41;;;;;;;0.00;0.00;;;;;;;6.21;65.92;100784.81;5048117;28;20136;-78
2022/01/26 08:58:09;;;;;;;0.47;0.47;;;;;;;6.23;65.73;100793.47;5047618;28;20566;-77
2022/01/26 09:00:44;;;;;;;0.10;0.10;;;;;;;6.33;65.94;100786.00;5040064;28;20143;-79
2022/01/26 09:03:11;;;;;;;;;;;;;;;6.50;65.14;100786.09;5044515;28;20051;-78
2022/01/26 09:05:39;;;;;;;0.30;0.30;;;;;;;6.27;65.29;100776.66;5048039;28;20457;-78
2022/01/26 09:08:06;;;;;;;0.20;0.20;;;;;;;6.26;65.64;100774.94;5049319;28;20049;-78
2022/01/26 09:10:37;;;;;;;0.43;0.43;;;;;;;6.34;65.64;100773.72;5030887;28;20056;-79
2022/01/26 09:13:06;;;;;;;0.10;0.10;;;;;;;6.60;65.57;100770.72;5049815;28;20052;-77
2022/01/26 09:15:36;;;;;;;3.50;1.58;;;;;;;6.74;64.92;100767.47;5049882;28;20076;-75
2022/01/26 09:18:06;;;;;;;0.10;0.10;;;;;;;6.66;64.97;100770.47;5048173;28;20080;-80
2022/01/26 09:20:37;;;;;;;0.10;0.10;;;;;;;6.85;65.03;100775.66;5047631;28;20057;-78
2022/01/26 09:23:04;;;;;;;1.38;1.38;;;;;;;6.96;64.96;100777.75;5045846;28;20480;-78
2022/01/26 09:25:32;;;;;;;0.10;0.10;;;;;;;6.88;64.80;100785.19;5047584;28;20124;-79
2022/01/26 09:28:00;;;;;;;0.40;0.40;;;;;;;6.88;64.98;100783.41;5047164;28;20706;-77
2022/01/26 09:30:28;;;;;;;0.13;0.13;;;;;;;6.96;64.99;100783.00;5028274;28;20045;-76
2022/01/26 09:32:55;;;;;;;0.10;0.10;;;;;;;7.07;65.06;100787.75;5044078;28;20151;-76
2022/01/26 09:35:23;;;;;;;0.20;0.20;;;;;;;7.15;64.71;100784.72;5045435;28;20672;-78
2022/01/26 09:37:58;;;;;;;0.65;0.65;;;;;;;7.17;64.79;100769.75;5047197;28;20056;-77
2022/01/26 09:40:26;;;;;;;0.00;0.00;;;;;;;7.16;64.86;100768.88;5048676;28;20084;-76
2022/01/26 09:42:57;;;;;;;25.88;13.18;;;;;;;6.72;63.92;100769.31;5029968;28;20045;-77
2022/01/26 09:45:25;;;;;;;24.70;12.55;;;;;;;6.53;64.48;100777.19;5046080;28;20106;-75
2022/01/26 09:47:53;;;;;;;18.50;10.93;;;;;;;6.63;64.90;100775.00;5047026;28;20216;-77
2022/01/26 09:50:21;;;;;;;26.30;15.82;;;;;;;6.53;64.74;100769.31;5031673;28;20132;-78
2022/01/26 09:52:49;;;;;;;21.92;13.05;;;;;;;6.29;64.66;100764.31;5046662;28;20577;-78
2022/01/26 09:55:16;;;;;;;27.70;15.10;;;;;;;6.25;64.79;100765.38;5048848;28;20049;-78
2022/01/26 09:57:48;;;;;;;24.70;15.02;;;;;;;6.18;64.88;100761.34;5047683;28;20112;-81
2022/01/26 10:00:17;;;;;;;22.48;14.77;;;;;;;6.15;65.29;100756.22;5050979;28;20053;-76
2022/01/26 10:02:45;;;;;;;18.13;10.68;;;;;;;6.30;65.27;100759.91;5048223;28;20052;-76
2022/01/26 10:05:19;;;;;;;30.63;14.57;;;;;;;6.43;65.37;100760.22;5047212;28;20509;-76
2022/01/26 10:08:00;;;;;;;19.38;11.68;;;;;;;6.49;65.22;100759.91;5034090;28;20102;-77
2022/01/26 10:15:26;;;;;;;21.50;13.65;;;;;;;6.58;65.04;100756.84;5047503;28;20044;-79
2022/01/26 10:16:52;;;;;;;21.85;12.93;;;;;;;6.52;64.98;100746.66;5043006;28;20679;-77
2022/01/26 10:19:22;;;;;;;22.85;12.23;;;;;;;6.55;65.16;100749.09;5042152;28;20048;-77
2022/01/26 10:21:53;;;;;;;25.30;14.85;;;;;;;6.57;65.25;100754.28;5042073;28;20055;-76
2022/01/26 10:24:25;;;;;;;24.38;16.55;;;;;;;6.39;65.46;100740.25;5043712;28;20047;-75
2022/01/26 10:26:59;;;;;;;22.75;14.38;;;;;;;6.43;65.51;100747.94;5044464;28;20053;-75
2022/01/26 10:29:26;;;;;;;28.23;14.10;;;;;;;6.44;65.55;100741.75;5043741;28;20207;-76
2022/01/26 10:31:55;;;;;;;29.25;14.82;;;;;;;6.46;65.34;100739.06;5011133;28;20060;-76
2022/01/26 10:34:24;;;;;;;22.42;14.32;;;;;;;6.34;65.41;100737.00;5044697;28;20055;-77
2022/01/26 10:36:57;;;;;;;23.05;14.50;;;;;;;6.29;65.61;100735.44;5044797;28;20125;-78
2022/01/26 10:39:29;;;;;;;22.05;14.32;;;;;;;6.20;65.67;100728.03;5044564;28;20162;-78
2022/01/26 10:42:00;;;;;;;26.42;16.77;;;;;;;6.20;65.69;100724.56;5047719;28;20057;-75
2022/01/26 10:44:29;;;;;;;33.83;16.75;;;;;;;6.17;65.81;100722.06;5028972;28;20045;-78
2022/01/26 10:46:59;;;;;;;23.15;15.02;;;;;;;6.26;65.80;100717.22;5029888;28;20161;-75
2022/01/26 10:49:44;;;;;;;30.50;16.13;;;;;;;6.35;65.70;100722.97;5034570;28;20116;-74
2022/01/26 10:52:20;;;;;;;28.35;13.38;;;;;;;6.57;65.45;100728.03;5037450;28;20095;-76
2022/01/26 10:54:47;;;;;;;;;;;;;;;6.86;64.64;100710.84;5031274;28;20068;-75
2022/01/26 10:57:14;;;;;;;28.83;16.25;;;;;;;6.61;65.27;100714.72;5026252;28;20136;-74
2022/01/26 10:59:44;;;;;;;23.73;15.52;;;;;;;6.55;65.46;100714.97;5024432;28;20152;-76
2022/01/26 11:02:14;;;;;;;22.58;13.85;;;;;;;6.51;65.68;100721.31;5025242;28;20052;-74
2022/01/26 11:04:43;;;;;;;26.58;14.65;;;;;;;6.40;65.84;100715.75;5007275;28;20539;-76
2022/01/26 11:07:13;;;;;;;27.48;14.93;;;;;;;6.29;65.86;100719.72;5026112;28;20356;-74
2022/01/26 11:09:47;;;;;;;23.83;15.73;;;;;;;6.26;66.26;100711.97;5027821;28;20099;-79
2022/01/26 11:12:18;;;;;;;21.40;13.32;;;;;;;6.37;66.01;100702.75;5013039;28;20049;-78
2022/01/26 11:14:47;;;;;;;24.88;14.80;;;;;;;6.39;65.87;100699.16;5010515;28;20049;-80
2022/01/26 11:17:27;;;;;;;25.90;12.50;;;;;;;6.41;66.04;100689.44;5005714;28;20053;-77
2022/01/26 11:19:56;;;;;;;19.05;12.25;;;;;;;6.41;65.97;100693.81;5023330;28;20052;-80
2022/01/26 11:22:29;;;;;;;25.30;17.33;;;;;;;6.42;65.98;100688.50;5023640;28;20052;-78
2022/01/26 11:25:18;;;;;;;21.98;13.77;;;;;;;6.39;66.05;100686.03;5037019;28;20100;-80
2022/01/26 11:27:48;;;;;;;27.67;12.95;;;;;;;6.27;65.93;100684.84;5020006;28;20552;-74
2022/01/26 11:30:30;;;;;;;15.90;11.65;;;;;;;6.15;66.25;100684.56;5035160;28;20049;-79
2022/01/26 11:32:59;;;;;;;23.83;13.90;;;;;;;6.31;66.23;100681.13;5022960;28;20156;-76
2022/01/26 11:35:30;;;;;;;25.23;14.27;;;;;;;6.50;66.04;100675.03;5022531;28;20691;-76
2022/01/26 11:38:09;;;;;;;29.58;16.90;;;;;;;6.59;65.82;100676.31;5021789;28;20056;-78
2022/01/26 11:46:23;;;;;;;36.25;21.33;;;;;;;6.66;65.65;100665.47;5035444;28;20124;-78
2022/01/26 11:49:01;;;;;;;31.02;19.90;;;;;;;6.62;66.08;100660.44;5043325;28;20053;-76
2022/01/26 11:51:40;;;;;;;28.95;18.58;;;;;;;6.71;66.09;100662.59;5043151;28;20056;-76
2022/01/26 11:54:15;;;;;;;32.60;19.92;;;;;;;6.83;65.73;100655.88;5044350;28;20044;-78
2022/01/26 11:56:55;;;;;;;31.02;19.50;;;;;;;6.91;65.69;100656.34;5048196;28;20557;-78
2022/01/26 11:59:23;;;;;;;42.20;19.52;;;;;;;6.89;65.76;100658.19;5027882;28;20593;-77
2022/01/26 12:01:57;;;;;;;41.58;21.27;;;;;;;6.89;65.70;100661.66;5045646;28;20576;-79
2022/01/26 12:04:26;;;;;;;33.83;18.77;;;;;;;6.83;65.78;100655.88;5046765;28;20063;-79
2022/01/26 12:06:59;;;;;;;25.48;15.57;;;;;;;6.73;66.07;100652.03;5046628;28;20073;-74
2022/01/26 12:09:28;;;;;;;29.83;17.65;;;;;;;6.60;66.50;100644.75;5045716;28;20547;-80
2022/01/26 12:11:57;;;;;;;33.65;18.88;;;;;;;6.52;66.77;100646.94;5047899;28;20048;-78
2022/01/26 12:14:24;;;;;;;29.88;18.15;;;;;;;6.49;66.91;100641.81;5050965;28;20533;-78
2022/01/26 12:16:55;;;;;;;31.35;18.92;;;;;;;6.41;67.37;100638.72;5054062;28;20419;-76
2022/01/26 12:19:31;;;;;;;26.48;15.60;;;;;;;6.39;67.43;100635.31;5051341;28;20140;-78
2022/01/26 12:36:35;;;;;;;25.42;15.88;;;;;;;6.49;68.01;100632.16;5041756;28;20109;-79
2022/01/26 12:39:10;;;;;;;24.90;16.35;;;;;;;6.30;68.22;100626.13;5048920;28;20037;-79
2022/01/26 12:41:45;;;;;;;;;;;;;;;6.47;67.88;100625.31;5029448;28;20099;-78
2022/01/26 12:44:13;;;;;;;23.63;16.30;;;;;;;6.24;68.53;100624.66;5044367;28;19920;-77
2022/01/26 12:46:42;;;;;;;25.13;16.55;;;;;;;6.17;68.98;100625.03;5034191;28;20545;-76
2022/01/26 12:49:13;;;;;;;21.20;15.88;;;;;;;6.16;69.18;100608.44;5020963;28;20045;-75
2022/01/26 12:51:43;;;;;;;23.73;15.85;;;;;;;6.17;69.05;100607.50;5037962;28;20092;-74
2022/01/26 12:54:11;;;;;;;20.98;11.73;;;;;;;6.33;69.01;100610.22;5039112;28;20060;-78
2022/01/26 12:56:41;;;;;;;25.55;15.50;;;;;;;6.32;69.00;100609.38;5045868;28;20041;-76
2022/01/26 12:59:10;;;;;;;25.00;15.77;;;;;;;6.30;69.00;100613.00;5044154;28;20107;-75
2022/01/26 13:01:37;;;;;;;32.25;19.45;;;;;;;6.41;69.04;100609.84;5044117;28;20056;-75
2022/01/26 13:04:06;;;;;;;31.40;20.67;;;;;;;6.38;69.14;100607.41;5046251;28;20041;-75
2022/01/26 13:06:36;;;;;;;29.52;22.90;;;;;;;6.35;69.25;100599.66;5044368;28;20057;-74
2022/01/26 13:09:16;;;;;;;30.27;23.48;;;;;;;6.37;69.54;100596.03;5044657;28;20053;-75
2022/01/26 13:11:47;;;;;;;30.17;23.92;;;;;;;6.35;69.61;100604.91;5044195;28;20073;-76
2022/01/26 13:14:23;;;;;;;30.00;24.05;;;;;;;6.33;69.61;100607.59;5044466;28;20149;-75
2022/01/26 13:17:06;;;;;;;30.27;20.88;;;;;;;6.35;69.80;100607.53;5033111;28;20050;-74
2022/01/26 13:25:11;;;;;;;37.65;26.25;;;;;;;6.43;69.69;100603.63;5024361;28;20048;-74
2022/01/26 13:28:00;;;;;;;30.40;20.70;;;;;;;6.41;69.71;100601.97;5024782;28;20045;-75